岡山空港の過去48時間の天気

岡山空港 (Okayama)

現在時刻: 1/19 20:35 JST (1/19 11:35 UTC) 以下の時間は現地時間です。

過去48時間のMETAR気象情報
時間 風向 風速(m/s) 視程 気温(℃) 湿度(%) 気圧(hPa) 天気現象
19 20:00 2 10km以上 5 81 1019
19 19:00 不定 1 10km以上 6 76 1020
19 18:00 南西 2 10km以上 6 70 1019
19 17:00 南南西 3 10km以上 9 57 1020
19 16:00 南南西 4 10km以上 10 54 1020
19 15:00 南西 3 10km以上 12 44 1020
19 14:00 南西 4 10km以上 11 43 1020
19 13:00 南南西 4 10km以上 10 54 1021
19 12:00 西南西 5 10km以上 10 54 1023
19 11:00 南西 5 10km以上 9 62 1024
19 10:00 西南西 3 10km以上 7 66 1024
19 09:00 東南東 2 10km以上 4 70 1024
19 08:00 西南西 2 10km以上 2 81 1024
19 07:00 北西 2 10km以上 2 81 1023
19 06:15 北西 2 10km以上 2 81 1023
18 21:00 西北西 3 10km以上 3 70 1024
18 20:00 不定 1 10km以上 3 70 1024
18 19:00 不定 1 10km以上 4 70 1023
18 18:00 不定 1 10km以上 7 57 1023
18 17:00 西北西 3 10km以上 8 49 1022
18 16:00 西北西 3 10km以上 9 40 1021
18 15:00 西南西 5 10km以上 11 40 1021
18 14:00 西北西 3 10km以上 9 46 1021
18 13:00 西 6 10km以上 9 50 1022
18 12:00 西 4 10km以上 7 61 1023
18 11:00 西南西 4 10km以上 6 65 1023
18 10:00 不定 2 10km以上 6 65 1024
18 09:00 西南西 2 10km以上 4 81 1023
18 08:00 西 2 10km以上 2 93 1022
18 07:00 西北西 2 10km以上 0 93 1022
18 06:15 西 2 10km以上 1 86 1021
17 21:00 西南西 3 10km以上 4 65 1018
RJOB 191100Z 09003KT 060V160 9999 FEW020 05/02 Q1019
RJOB 191000Z VRB02KT 9999 FEW020 06/02 Q1020
RJOB 190900Z 23004KT 9999 FEW020 06/01 Q1019
RJOB 190800Z 21005KT 9999 FEW025 09/01 Q1020
RJOB 190700Z 20007KT 170V240 9999 FEW030 10/01 Q1020
RJOB 190600Z 22006KT 170V260 9999 FEW030 12/M00 Q1020
RJOB 190500Z 22007KT 150V270 9999 FEW030 11/M01 Q1020
RJOB 190400Z 21007KT 9999 FEW030 10/01 Q1021
RJOB 190300Z 24009KT 9999 FEW025 SCT/// 10/01 Q1023
RJOB 190200Z 23009KT 9999 FEW025 09/02 Q1024
RJOB 190100Z 25006KT 9999 FEW025 SCT/// 07/01 Q1024
RJOB 190000Z 11003KT 9999 FEW020 SCT/// 04/M01 Q1024
RJOB 182300Z 24003KT 200V300 9999 FEW020 SCT180 02/M01 Q1024
RJOB 182200Z 31003KT CAVOK 02/M01 Q1023
RJOB 182115Z 31004KT 9999 FEW015 SCT/// 02/M01 Q1023 RMK 1CU015 A3023
RJOB 181200Z 29005KT 9999 FEW025 03/M02 Q1024
RJOB 181100Z VRB02KT 9999 FEW025 03/M02 Q1024
RJOB 181000Z VRB01KT 9999 FEW025 04/M01 Q1023
RJOB 180900Z VRB01KT 9999 FEW030 SCT050 07/M01 Q1023
RJOB 180800Z 30005KT 260V340 9999 FEW030 SCT050 08/M02 Q1022
RJOB 180700Z 30005KT 260V350 9999 FEW025 SCT050 09/M04 Q1021
RJOB 180600Z 25009KT 210V290 9999 FEW025 SCT050 11/M02 Q1021
RJOB 180500Z 29006KT 250V350 9999 FEW020 SCT045 09/M02 Q1021
RJOB 180400Z 27011KT 9999 FEW020 SCT040 09/M01 Q1022
RJOB 180300Z 26007KT 220V310 9999 FEW020 SCT030 BKN045 07/00 Q1023
RJOB 180200Z 24008KT 200V270 9999 FEW020 SCT030 BKN040 06/M00 Q1023
RJOB 180100Z VRB03KT 9999 FEW020 SCT060 06/M00 Q1024
RJOB 180000Z 24003KT 9999 FEW020 BKN040 04/01 Q1023
RJOB 172300Z 27004KT 9999 FEW020 02/01 Q1022
RJOB 172200Z 30004KT 9999 FEW015 SCT060 00/M01 Q1022
RJOB 172115Z 28004KT 9999 FEW015 01/M01 Q1021 RMK 1CU015 A3016
RJOB 171200Z 25005KT 9999 FEW030 BKN060 04/M02 Q1018